Latest Weather Observations for Cummins Airport

IDS60801

Issued at 7:02 am CST Tuesday 30 August 2016 (issued every 30 minutes, with the page automatically refreshed every 10 minutes)

About weather observations | Map of weather stations | Latest weather observations for SA | Other Formats
Station Details ID: 018217 Name: CUMMINS AERO Lat: -34.25 Lon: 135.71 Height: 60.11 m
Data from the previous 72 hours. | See also: Recent months at Cummins Airport
Date/Time
CST
Temp
°C
App
Temp
°C
Dew
Point
°C
Rel
Hum
%
Delta-T
°C
Wind Press
QNH
hPa
Press
MSL
hPa
Rain since
9am
mm
Dir  Spd
km/h
Gust
km/h
Spd
kts
Gust
kts
30/07:00am 10.5 7.8 10.5 100 0.0 NNE 15 17 8 9 1009.9 1010.0 3.0
30/06:30am 9.9 7.8 9.9 100 0.0 NE 11 15 6 8 1009.7 1009.8 3.0
30/06:00am 9.5 7.3 9.5 100 0.0 NNE 11 13 6 7 1009.3 1009.4 3.0
30/05:30am 9.9 8.6 9.9 100 0.0 NE 7 9 4 5 1009.4 1009.5 3.0
30/05:00am 10.4 8.5 10.4 100 0.0 NE 11 15 6 8 1009.3 1009.4 3.0
30/04:30am 10.6 9.1 10.6 100 0.0 NNE 9 13 5 7 1009.1 1009.2 3.0
30/04:00am 10.5 8.6 10.5 100 0.0 NE 11 15 6 8 1009.4 1009.5 3.0
30/03:30am 10.4 9.4 10.4 100 0.0 NE 6 7 3 4 1009.5 1009.6 3.0
30/03:00am 11.1 10.1 11.1 100 0.0 NE 7 9 4 5 1009.8 1009.9 3.0
30/02:30am 11.9 10.8 11.9 100 0.0 NE 9 13 5 7 1010.0 1010.1 3.0
30/02:00am 11.8 10.7 11.8 100 0.0 NE 9 13 5 7 1010.5 1010.6 3.0
30/01:30am 11.7 10.1 11.7 100 0.0 NE 11 15 6 8 1010.8 1010.9 3.0
30/01:00am 12.1 10.7 12.1 100 0.0 NE 11 15 6 8 1010.7 1010.8 3.0
30/12:30am 12.3 10.6 12.3 100 0.0 E 13 17 7 9 1010.3 1010.4 3.0
30/12:00am 12.2 10.8 12.2 100 0.0 E 11 13 6 7 1010.6 1010.7 2.8
 
Date/Time
CST
Temp
°C
App
Temp
°C
Dew
Point
°C
Rel
Hum
%
Delta-T
°C
Wind Press
QNH
hPa
Press
MSL
hPa
Rain since
9am
mm
Dir  Spd
km/h
Gust
km/h
Spd
kts
Gust
kts
29/11:30pm 12.3 13.0 12.3 100 0.0 CALM 0 0 0 0 1011.1 1011.1 1.6
29/11:00pm 12.3 11.7 12.3 100 0.0 NE 7 9 4 5 1011.1 1011.1 0.8
29/10:30pm 12.3 11.9 12.3 100 0.0 N 6 7 3 4 1011.0 1011.0 0.6
29/10:00pm 12.4 12.3 12.2 99 0.1 WNW 4 7 2 4 1010.5 1010.6 0.6
29/09:30pm 12.5 10.4 12.3 99 0.1 WNW 15 22 8 12 1010.4 1010.5 0.6
29/09:00pm 11.9 11.4 11.9 100 0.0 W 6 15 3 8 1010.0 1010.1 0.6
29/08:30pm 12.0 11.5 12.0 100 0.0 WSW 6 11 3 6 1009.7 1009.8 0.6
29/08:00pm 12.1 10.3 12.1 100 0.0 WNW 13 17 7 9 1009.1 1009.2 0.6
29/07:30pm 13.2 13.1 13.2 100 0.0 SW 6 7 3 4 1008.5 1008.6 0.6
29/07:00pm 14.4 14.3 13.9 97 0.3 S 7 9 4 5 1008.0 1008.1 0.6
29/06:30pm 15.1 15.0 14.0 93 0.6 SE 7 9 4 5 1008.1 1008.2 0.6
29/06:00pm 15.8 14.9 13.6 87 1.2 W 11 15 6 8 1007.9 1008.0 0.6
29/05:30pm 17.1 15.9 12.8 76 2.4 N 11 15 6 8 1007.9 1008.0 0.6
29/05:00pm 17.7 16.8 12.6 72 2.8 NNE 9 13 5 7 1007.6 1007.7 0.0
29/04:30pm 17.9 16.0 11.7 67 3.4 NNE 13 17 7 9 1007.7 1007.8 0.0
29/04:00pm 18.4 15.7 11.7 65 3.7 NNE 17 20 9 11 1007.4 1007.5 0.0
29/03:30pm 19.7 18.1 12.7 64 4.0 NNE 13 20 7 11 1007.4 1007.5 0.0
29/03:00pm 19.4 16.3 11.7 61 4.3 N 19 26 10 14 1007.6 1007.7 0.0
29/02:30pm 19.7 15.8 10.9 57 4.8 N 22 30 12 16 1007.4 1007.5 0.0
29/02:00pm 20.2 15.1 10.6 54 5.2 N 28 37 15 20 1007.4 1007.5 0.0
29/01:30pm 20.7 15.2 10.5 52 5.6 NNE 30 39 16 21 1007.8 1007.9 0.0
29/01:00pm 20.6 15.5 10.7 53 5.4 N 28 37 15 20 1007.9 1008.0 0.0
29/12:30pm 20.3 14.3 10.1 52 5.5 N 32 43 17 23 1008.4 1008.5 0.0
29/12:00pm 20.7 15.4 11.3 55 5.2 N 30 39 16 21 1008.7 1008.8 0.0
29/11:30am 19.6 14.5 10.6 56 4.9 N 28 41 15 22 1008.8 1008.9 0.0
29/11:04am 19.2 13.9 9.7 54 5.1 N 28 46 15 25 1008.9 1009.0 0.0
29/11:00am 18.6 13.1 10.4 59 4.4 N 30 46 16 25 1009.0 1009.1 0.0
29/10:30am 17.6 12.1 9.0 57 4.5 N 28 41 15 22 1009.0 1009.1 0.0
29/10:00am 17.5 12.5 9.7 60 4.1 NNE 26 37 14 20 1009.3 1009.4 0.0
29/09:30am 15.8 12.2 9.7 67 3.2 NNE 19 24 10 13 1009.5 1009.6 0.0
29/09:00am 16.2 12.6 9.8 66 3.4 NNE 19 28 10 15 1009.9 1010.0 1.4
29/08:30am 14.0 10.9 8.8 71 2.6 NNE 15 20 8 11 1009.9 1010.0 1.4
29/08:00am 13.1 9.9 8.6 74 2.3 NE 15 20 8 11 1009.7 1009.8 1.4
29/07:30am 12.2 9.2 7.7 74 2.2 NE 13 19 7 10 1009.2 1009.3 1.4
29/07:00am 12.4 8.3 7.7 73 2.3 NE 19 24 10 13 1008.9 1009.0 1.4
29/06:30am 12.8 7.8 8.1 73 2.3 NE 24 35 13 19 1008.8 1008.9 1.4
29/06:00am 13.6 9.6 8.9 73 2.4 NE 20 32 11 17 1008.5 1008.6 1.4
29/05:30am 13.0 9.3 9.4 79 1.8 ENE 19 26 10 14 1008.2 1008.3 1.4
29/05:00am 12.9 9.2 10.1 83 1.4 NE 20 30 11 16 1008.7 1008.8 1.4
29/04:30am 12.8 9.4 10.5 86 1.2 NE 19 24 10 13 1008.6 1008.7 1.4
29/04:00am 12.6 9.8 11.3 92 0.7 ENE 17 24 9 13 1008.9 1009.0 1.4
29/03:30am 12.5 10.7 10.9 90 0.8 NNE 11 13 6 7 1010.0 1010.1 0.8
29/03:00am 13.8 11.1 10.2 79 1.9 NNE 15 20 8 11 1009.8 1009.9 0.2
29/02:30am 13.9 10.4 10.3 79 1.9 NE 19 24 10 13 1009.4 1009.5 0.2
29/02:00am 13.9 10.5 10.7 81 1.7 NE 19 26 10 14 1009.6 1009.7 0.2
29/01:30am 13.9 10.7 11.1 83 1.5 NE 19 26 10 14 1009.7 1009.8 0.2
29/01:00am 13.7 10.3 11.4 86 1.2 NE 20 30 11 16 1009.8 1009.9 0.2
29/12:30am 14.2 10.5 11.4 83 1.5 NE 22 28 12 15 1010.3 1010.4 0.2
29/12:00am 13.9 10.5 11.4 85 1.3 NE 20 28 11 15 1010.5 1010.6 0.2
 
Date/Time
CST
Temp
°C
App
Temp
°C
Dew
Point
°C
Rel
Hum
%
Delta-T
°C
Wind Press
QNH
hPa
Press
MSL
hPa
Rain since
9am
mm
Dir  Spd
km/h
Gust
km/h
Spd
kts
Gust
kts
28/11:30pm 13.9 11.1 11.2 84 1.4 NE 17 24 9 13 1010.6 1010.7 0.2
28/11:00pm 14.2 10.9 11.0 81 1.7 NNE 19 24 10 13 1011.2 1011.2 0.2
28/10:30pm 13.6 11.1 11.0 84 1.4 NNE 15 19 8 10 1011.5 1011.5 0.2
28/10:00pm 14.0 10.7 11.0 82 1.6 NNE 19 24 10 13 1011.2 1011.2 0.2
28/09:30pm 14.2 11.2 10.6 79 1.9 NNE 17 24 9 13 1010.8 1010.9 0.2
28/09:00pm 15.5 11.8 9.6 68 3.1 NNE 19 26 10 14 1010.5 1010.6 0.0
28/08:30pm 15.1 11.6 10.1 72 2.6 NNE 19 26 10 14 1010.1 1010.2 0.0
28/08:00pm 15.0 11.5 10.8 76 2.2 NNE 20 26 11 14 1009.8 1009.9 0.0
28/07:30pm 15.0 11.5 10.8 76 2.2 NNE 20 28 11 15 1009.8 1009.9 0.0
28/07:00pm 15.4 10.2 10.4 72 2.6 NNE 28 41 15 22 1009.7 1009.8 0.0
28/06:37pm 16.5 11.1 9.4 63 3.7 N 28 46 15 25 1009.7 1009.8 0.0
28/06:30pm 16.1 11.2 9.8 66 3.3 N 26 37 14 20 1009.6 1009.7 0.0
28/06:00pm 19.4 12.3 6.5 43 6.5 N 33 57 18 31 1009.3 1009.4 0.0
28/05:56pm 19.3 13.0 5.7 41 6.7 NNE 28 46 15 25 1009.2 1009.3 0.0
28/05:30pm 19.2 13.7 6.0 42 6.6 NNE 24 32 13 17 1008.6 1008.7 0.0
28/05:00pm 18.5 14.8 7.9 50 5.4 N 17 24 9 13 1008.6 1008.7 0.0
28/04:30pm 18.6 14.9 8.0 50 5.5 NNE 17 20 9 11 1008.0 1008.1 0.0
28/04:00pm 19.3 15.0 8.0 48 5.8 N 20 26 11 14 1007.3 1007.4 0.0
28/03:30pm 19.8 15.0 7.2 44 6.4 N 22 30 12 16 1007.0 1007.1 0.0
28/03:00pm 20.4 14.5 7.4 43 6.7 NNE 28 39 15 21 1006.8 1006.9 0.0
28/02:30pm 20.3 14.7 8.6 47 6.2 NNE 28 39 15 21 1007.0 1007.1 0.0
28/02:18pm 21.1 15.4 8.4 44 6.7 NNE 28 46 15 25 1007.3 1007.4 0.0
28/02:00pm 20.7 14.5 7.7 43 6.7 NNE 30 44 16 24 1007.6 1007.7 0.0
28/01:30pm 21.8 17.4 10.3 48 6.3 NNE 24 33 13 18 1008.0 1008.1 0.0
28/01:00pm 20.5 13.5 8.5 46 6.3 NNE 35 48 19 26 1008.9 1009.0 0.0
28/12:30pm 21.0 14.0 8.3 44 6.7 N 35 46 19 25 1009.3 1009.4 0.0
28/12:00pm 19.9 12.6 7.3 44 6.4 N 35 50 19 27 1009.8 1009.9 0.0
28/11:38am 19.6 12.6 7.0 44 6.4 NNE 33 52 18 28 1010.4 1010.5 0.0
28/11:30am 19.4 12.4 6.8 44 6.4 NNE 33 50 18 27 1010.5 1010.6 0.0
28/11:00am 18.7 11.9 7.5 48 5.7 NNE 33 54 18 29 1011.0 1011.0 0.0
28/10:55am 18.7 12.0 7.2 47 5.8 NNE 32 54 17 29 1011.1 1011.1 0.0
28/10:30am 17.8 10.3 6.3 47 5.7 NNE 35 50 19 27 1011.5 1011.5 0.0
28/10:00am 17.1 10.2 6.6 50 5.2 NNE 32 43 17 23 1011.7 1011.7 0.0
28/09:30am 16.3 9.3 6.2 51 4.9 NNE 32 44 17 24 1012.0 1012.0 0.0
28/09:00am 15.3 9.0 5.8 53 4.6 NNE 28 39 15 21 1012.1 1012.1 0.0
28/08:30am 13.4 7.9 6.0 61 3.5 NE 24 32 13 17 1012.3 1012.3 0.0
28/08:00am 12.6 7.3 5.1 60 3.5 NE 22 30 12 16 1012.4 1012.4 0.0
28/07:30am 11.5 6.5 4.7 63 3.1 NE 20 26 11 14 1012.5 1012.5 0.0
28/07:00am 11.0 6.2 4.5 64 2.9 NE 19 24 10 13 1012.5 1012.5 0.0
28/06:30am 10.7 5.9 4.4 65 2.8 NE 19 22 10 12 1012.4 1012.4 0.0
28/06:00am 10.5 6.0 4.4 66 2.7 NE 17 22 9 12 1012.5 1012.5 0.0
28/05:30am 10.2 5.7 4.4 67 2.6 NE 17 20 9 11 1012.5 1012.5 0.0
28/05:00am 10.3 5.8 4.2 66 2.7 NE 17 19 9 10 1012.5 1012.5 0.0
28/04:30am 10.2 6.1 4.4 67 2.6 NE 15 19 8 10 1012.6 1012.6 0.0
28/04:00am 10.1 6.4 4.5 68 2.5 NE 13 17 7 9 1012.7 1012.7 0.0
28/03:30am 10.1 6.0 4.3 67 2.6 NE 15 19 8 10 1012.9 1012.9 0.0
28/03:00am 10.2 6.1 4.4 67 2.6 NE 15 20 8 11 1013.2 1013.2 0.0
28/02:30am 10.3 5.5 4.5 67 2.6 NE 19 24 10 13 1013.4 1013.4 0.0
28/02:00am 10.3 5.5 4.5 67 2.6 NE 19 24 10 13 1013.8 1013.8 0.0
28/01:30am 10.5 5.7 4.4 66 2.7 NE 19 24 10 13 1014.3 1014.3 0.0
28/01:00am 10.1 6.0 4.5 68 2.5 NNE 15 20 8 11 1014.7 1014.7 0.0
28/12:30am 10.6 6.6 4.7 67 2.7 NE 15 20 8 11 1015.0 1015.0 0.0
28/12:00am 10.4 6.0 5.0 69 2.4 NE 17 20 9 11 1015.2 1015.2 0.0
 
Date/Time
CST
Temp
°C
App
Temp
°C
Dew
Point
°C
Rel
Hum
%
Delta-T
°C
Wind Press
QNH
hPa
Press
MSL
hPa
Rain since
9am
mm
Dir  Spd
km/h
Gust
km/h
Spd
kts
Gust
kts
27/11:30pm 10.4 6.4 5.0 69 2.4 NE 15 17 8 9 1015.7 1015.7 0.0
27/11:00pm 10.1 6.6 5.3 72 2.2 NE 13 17 7 9 1015.6 1015.6 0.0
27/10:30pm 10.1 6.7 5.7 74 2.0 NE 13 17 7 9 1016.0 1016.0 0.0
27/10:00pm 10.1 6.3 5.9 75 1.9 NE 15 17 8 9 1016.1 1016.1 0.0
27/09:30pm 9.2 5.8 5.9 80 1.5 NE 13 17 7 9 1016.2 1016.2 0.0
27/09:00pm 9.4 5.6 5.9 79 1.6 NE 15 19 8 10 1016.2 1016.2 0.0
27/08:30pm 9.3 5.3 6.7 84 1.2 NE 17 20 9 11 1016.0 1016.0 0.0
27/08:00pm 9.0 5.6 6.1 82 1.3 NE 13 15 7 8 1016.1 1016.1 0.0
27/07:30pm 10.0 7.4 6.3 78 1.7 NE 9 13 5 7 1015.9 1015.9 0.0
27/07:00pm 11.4 9.6 8.1 80 1.6 ENE 7 9 4 5 1015.7 1015.7 0.0
27/06:30pm 12.5 10.9 8.6 77 1.9 NE 7 9 4 5 1015.8 1015.8 0.0
27/06:00pm 13.6 12.0 8.7 72 2.5 NNE 7 9 4 5 1015.5 1015.5 0.0
27/05:30pm 14.6 12.8 9.4 71 2.7 N 9 13 5 7 1015.4 1015.4 0.0
27/05:00pm 16.1 14.1 8.8 62 3.7 N 9 13 5 7 1015.4 1015.4 0.0
27/04:30pm 18.7 14.8 7.2 47 5.8 N 17 26 9 14 1015.4 1015.4 0.0
27/04:00pm 17.9 13.7 7.6 51 5.2 NNW 19 28 10 15 1015.7 1015.7 0.0
27/03:30pm 19.3 14.8 7.1 45 6.2 NNW 20 28 11 15 1015.6 1015.6 0.0
27/03:00pm 19.3 15.7 8.3 49 5.7 N 17 24 9 13 1016.0 1016.0 0.0
27/02:30pm 19.2 14.3 6.7 44 6.3 NNW 22 30 12 16 1016.1 1016.1 0.0
27/02:00pm 17.9 11.9 5.5 44 6.0 NNW 26 37 14 20 1016.5 1016.5 0.0
27/01:30pm 19.3 14.4 8.3 49 5.7 N 24 35 13 19 1016.7 1016.7 0.0
27/01:00pm 18.5 11.8 5.4 42 6.4 N 30 41 16 22 1017.5 1017.5 0.0
27/12:30pm 18.2 12.0 6.1 45 6.0 NNW 28 41 15 22 1018.0 1018.1 0.0
27/12:00pm 17.7 11.6 5.0 43 6.1 N 26 37 14 20 1018.6 1018.7 0.0
27/11:30am 17.5 12.7 7.3 51 5.1 N 22 35 12 19 1018.9 1019.0 0.0
27/11:00am 16.1 10.7 6.5 53 4.7 N 24 33 13 18 1019.2 1019.3 0.0
27/10:30am 15.0 9.8 7.1 59 3.9 N 24 32 13 17 1019.8 1019.9 0.0
27/10:00am 13.2 8.7 7.0 66 3.0 N 20 26 11 14 1020.1 1020.2 0.0
27/09:30am 12.2 7.2 6.3 67 2.8 N 22 33 12 18 1020.4 1020.5 0.0
27/09:00am 10.5 6.6 7.0 79 1.7 N 17 26 9 14 1020.6 1020.7 0.0
27/08:30am 8.8 4.6 5.9 82 1.3 NNE 17 22 9 12 1020.3 1020.4 0.0
27/08:00am 6.5 3.1 6.1 97 0.2 NE 13 15 7 8 1020.1 1020.2 0.0
27/07:30am 5.1 1.5 5.0 99 0.0 NNE 13 15 7 8 1020.0 1020.1 0.0

Other Formats:

Comma delimited format used in spreadsheet applications
http://www.bom.gov.au/fwo/IDS60801/IDS60801.95663.axf

JavaScript Object Notation format (JSON) in row-major order
http://www.bom.gov.au/fwo/IDS60801/IDS60801.95663.json